Time;durP1;ratioP1;P1;durP2;ratioP2;P2;SDS_P1;SDS_P2;PMS_P1;PMS_P2;Temp;Humidity;BMP_temperature;BMP_pressure;BME280_temperature;BME280_humidity;BME280_pressure;Samples;Min_cycle;Max_cycle;Signal;HPM_P1;HPM_P2
2024/01/24 00:01:10;;;;;;;4.77;4.37;;;;;;;20.70;26.52;96060.56;6216567;27;109085;-59
2024/01/24 00:04:14;;;;;;;5.10;4.63;;;;;;;20.69;26.58;96062.41;6231329;28;109402;-60
2024/01/24 00:07:17;;;;;;;5.17;4.70;;;;;;;20.71;26.58;96065.59;6223897;27;110636;-60
2024/01/24 00:10:23;;;;;;;4.50;4.10;;;;;;;20.68;26.54;96068.81;6229598;28;110173;-60
2024/01/24 00:13:26;;;;;;;5.63;4.67;;;;;;;20.68;26.74;96066.16;6219382;27;110058;-60
2024/01/24 00:16:29;;;;;;;5.40;4.50;;;;;;;20.69;26.59;96078.38;6210134;28;108834;-61
2024/01/24 00:19:33;;;;;;;4.77;4.27;;;;;;;20.67;26.60;96079.69;6217296;28;109703;-61
2024/01/24 00:22:36;;;;;;;4.50;4.10;;;;;;;20.69;26.48;96082.91;6214142;28;110204;-61
2024/01/24 00:25:41;;;;;;;4.57;4.17;;;;;;;20.68;26.67;96081.31;6210727;27;110217;-60
2024/01/24 00:28:44;;;;;;;4.80;4.23;;;;;;;20.67;26.65;96083.19;6220443;28;109227;-60
2024/01/24 00:31:47;;;;;;;4.87;4.47;;;;;;;20.66;26.52;96094.84;6224132;27;109133;-61
2024/01/24 00:34:50;;;;;;;4.20;3.80;;;;;;;20.69;26.52;96101.53;6216528;27;110579;-60
2024/01/24 00:37:54;;;;;;;4.60;4.20;;;;;;;20.67;26.47;96096.47;6234866;27;110116;-60
2024/01/24 00:40:58;;;;;;;6.53;4.27;;;;;;;20.68;26.57;96091.94;6223830;27;109310;-60
2024/01/24 00:44:01;;;;;;;4.10;3.73;;;;;;;20.69;26.35;96097.00;6234091;27;109127;-61
2024/01/24 00:47:04;;;;;;;4.43;4.03;;;;;;;20.68;26.48;96098.06;6213807;27;109834;-60
2024/01/24 00:50:08;;;;;;;4.10;3.80;;;;;;;20.68;26.52;96097.28;6223700;28;110174;-60
2024/01/24 00:53:16;;;;;;;5.10;4.30;;;;;;;20.66;26.55;96094.84;6207112;28;108821;-60
2024/01/24 00:56:21;;;;;;;4.50;4.10;;;;;;;20.64;26.64;96091.66;6219209;27;109351;-60
2024/01/24 00:59:25;;;;;;;4.70;4.23;;;;;;;20.67;26.75;96103.63;6221305;28;109240;-60
2024/01/24 01:02:28;;;;;;;4.50;4.10;;;;;;;20.67;26.66;96100.97;6211322;28;109267;-60
2024/01/24 01:05:31;;;;;;;4.43;4.03;;;;;;;20.66;26.73;96100.16;6206462;27;109160;-60
2024/01/24 01:08:34;;;;;;;4.23;3.67;;;;;;;20.68;26.75;96108.69;6233171;27;109273;-60
2024/01/24 01:11:39;;;;;;;4.30;3.83;;;;;;;20.69;26.79;96106.84;6228001;28;110270;-60
2024/01/24 01:14:42;;;;;;;5.23;4.10;;;;;;;20.69;27.00;96085.56;6219562;28;109206;-61
2024/01/24 01:17:45;;;;;;;4.43;4.00;;;;;;;20.66;26.82;96089.53;6211922;28;109084;-60
2024/01/24 01:20:48;;;;;;;4.43;3.70;;;;;;;20.69;26.95;96094.34;6231917;27;109039;-60
2024/01/24 01:23:51;;;;;;;4.77;4.33;;;;;;;20.69;26.97;96089.03;6232262;27;109422;-59
2024/01/24 01:26:56;;;;;;;4.53;3.90;;;;;;;20.68;26.87;96086.63;6203722;27;109078;-60
2024/01/24 01:29:59;;;;;;;4.43;4.03;;;;;;;20.70;26.98;96081.84;6231025;27;109140;-60
2024/01/24 01:33:02;;;;;;;4.37;3.97;;;;;;;20.72;27.12;96087.69;6231859;27;109408;-59
2024/01/24 01:36:06;;;;;;;4.00;3.63;;;;;;;20.71;26.94;96088.75;6232658;27;109096;-59
2024/01/24 01:39:24;;;;;;;3.97;3.57;;;;;;;20.64;27.10;96086.34;6210142;27;109280;-60
2024/01/24 01:42:29;;;;;;;4.37;3.70;;;;;;;20.67;26.86;96093.81;6215772;28;109113;-60
2024/01/24 01:45:32;;;;;;;4.03;3.60;;;;;;;20.66;26.90;96083.41;6233573;27;110281;-60
2024/01/24 01:48:35;;;;;;;5.50;4.17;;;;;;;20.67;26.98;96082.34;6227684;27;108848;-60
2024/01/24 01:51:39;;;;;;;4.27;3.83;;;;;;;20.68;26.95;96076.78;6216416;28;110150;-60
2024/01/24 01:54:43;;;;;;;5.20;3.67;;;;;;;20.67;26.92;96080.50;6219425;28;109305;-60
2024/01/24 01:57:48;;;;;;;3.97;3.67;;;;;;;20.67;26.89;96071.72;6210651;28;110000;-66
2024/01/24 02:00:52;;;;;;;4.07;3.67;;;;;;;20.67;27.00;96069.88;6210094;27;109168;-66
2024/01/24 02:03:55;;;;;;;4.13;3.73;;;;;;;20.67;26.83;96055.75;6226040;27;109017;-66
2024/01/24 02:07:00;;;;;;;3.70;3.30;;;;;;;20.65;26.79;96050.72;6233323;27;110025;-66
2024/01/24 02:10:04;;;;;;;4.10;3.70;;;;;;;20.68;27.03;96049.41;6231512;27;110100;-66
2024/01/24 02:13:08;;;;;;;3.90;3.53;;;;;;;20.65;26.83;96049.91;6215356;27;110194;-65
2024/01/24 02:16:13;;;;;;;5.00;4.20;;;;;;;20.63;26.94;96052.84;6232986;27;109264;-66
2024/01/24 02:19:22;;;;;;;4.30;3.90;;;;;;;20.67;26.91;96053.09;6225957;27;109014;-66
2024/01/24 02:22:25;;;;;;;4.20;3.80;;;;;;;20.64;26.92;96057.09;6222066;28;109135;-64
2024/01/24 02:25:29;;;;;;;5.43;4.10;;;;;;;20.66;26.95;96056.81;6227819;27;111352;-66
2024/01/24 02:28:33;;;;;;;4.10;3.80;;;;;;;20.63;26.89;96053.66;6231576;27;109733;-66
2024/01/24 02:31:36;;;;;;;3.70;3.40;;;;;;;20.65;26.89;96045.38;6221104;27;109294;-65
2024/01/24 02:34:39;;;;;;;4.07;3.43;;;;;;;20.64;26.89;96049.13;6221641;27;109187;-64
2024/01/24 02:37:42;;;;;;;5.33;3.87;;;;;;;20.64;26.75;96049.13;6237297;28;110162;-65
2024/01/24 02:40:47;;;;;;;3.93;3.63;;;;;;;20.62;26.88;96043.28;6227727;28;110237;-65
2024/01/24 02:43:50;;;;;;;3.90;3.50;;;;;;;20.62;26.65;96040.63;6229515;28;110123;-65
2024/01/24 02:46:53;;;;;;;4.10;3.57;;;;;;;20.61;26.83;96039.03;6225628;27;109641;-65
2024/01/24 02:50:01;;;;;;;3.63;3.33;;;;;;;20.62;26.90;96040.63;6221247;27;109088;-66
2024/01/24 02:53:04;;;;;;;3.97;3.50;;;;;;;20.64;26.94;96038.47;6233212;28;109110;-65
2024/01/24 02:56:09;;;;;;;3.93;3.20;;;;;;;20.63;26.80;96039.56;6236557;27;109169;-65
2024/01/24 02:59:12;;;;;;;3.80;3.30;;;;;;;20.62;26.51;96040.63;6215346;28;110077;-65
2024/01/24 03:02:15;;;;;;;7.07;3.67;;;;;;;20.59;26.92;96046.47;6217268;28;109298;-65
2024/01/24 03:05:18;;;;;;;4.30;3.83;;;;;;;20.59;27.02;96049.16;6221807;27;109219;-65
2024/01/24 03:08:21;;;;;;;3.40;3.07;;;;;;;20.59;26.81;96052.59;6206776;28;110735;-60
2024/01/24 03:11:25;;;;;;;3.90;3.60;;;;;;;20.63;26.81;96050.19;6234187;27;110049;-59
2024/01/24 03:14:28;;;;;;;4.70;3.00;;;;;;;20.62;26.90;96056.56;6232220;28;109355;-59
2024/01/24 03:17:32;;;;;;;4.40;3.50;;;;;;;20.61;26.74;96052.31;6236180;27;108992;-60
2024/01/24 03:20:37;;;;;;;4.40;4.00;;;;;;;20.60;26.59;96038.22;6224492;27;109923;-60
2024/01/24 03:23:40;;;;;;;3.67;3.27;;;;;;;20.62;26.79;96045.94;6223324;27;110042;-60
2024/01/24 03:26:45;;;;;;;4.07;3.60;;;;;;;20.59;26.74;96033.97;6235807;27;109122;-59
2024/01/24 03:29:48;;;;;;;3.80;3.50;;;;;;;20.61;27.09;96025.72;6233004;28;110230;-59
2024/01/24 03:32:51;;;;;;;5.20;3.70;;;;;;;20.61;26.82;96028.41;6219746;27;109266;-59
2024/01/24 03:35:55;;;;;;;3.97;3.63;;;;;;;20.60;26.55;96021.47;6211130;28;109231;-60
2024/01/24 03:38:58;;;;;;;3.50;3.20;;;;;;;20.61;26.69;96034.50;6216249;27;109104;-60
2024/01/24 03:42:02;;;;;;;4.23;3.80;;;;;;;20.59;26.82;96041.16;6219916;28;108875;-60
2024/01/24 03:45:06;;;;;;;3.80;3.47;;;;;;;20.61;26.54;96041.69;6220901;28;109186;-60
2024/01/24 03:48:09;;;;;;;4.77;3.70;;;;;;;20.61;26.68;96028.41;6225726;27;109197;-60
2024/01/24 03:51:12;;;;;;;3.53;3.23;;;;;;;20.59;26.65;96041.16;6231613;27;109160;-60
2024/01/24 03:54:15;;;;;;;4.23;3.83;;;;;;;20.59;26.49;96036.63;6212062;28;109582;-60
2024/01/24 03:57:20;;;;;;;3.67;3.27;;;;;;;20.57;26.73;96038.78;6227478;27;110078;-60
2024/01/24 04:00:24;;;;;;;4.03;3.40;;;;;;;20.60;26.36;96032.13;6220218;27;110037;-60
2024/01/24 04:03:27;;;;;;;3.87;3.47;;;;;;;20.61;26.90;96028.41;6235107;27;109202;-59
2024/01/24 04:06:30;;;;;;;4.50;3.70;;;;;;;20.85;26.70;96028.56;6221031;27;109170;-59
2024/01/24 04:09:33;;;;;;;3.53;3.23;;;;;;;20.96;26.35;96029.31;6220367;28;109052;-59
2024/01/24 04:12:38;;;;;;;3.73;3.27;;;;;;;21.05;26.29;96038.34;6232360;27;109219;-59
2024/01/24 04:15:41;;;;;;;3.80;3.30;;;;;;;21.06;26.19;96048.72;6228647;27;109209;-59
2024/01/24 04:18:47;;;;;;;4.27;3.87;;;;;;;21.07;26.11;96060.94;6217836;28;109121;-59
2024/01/24 04:21:50;;;;;;;14.40;13.40;;;;;;;20.93;26.86;96051.94;6227429;27;111510;-59
2024/01/24 04:24:53;;;;;;;13.60;12.47;;;;;;;20.76;26.84;96057.59;6224000;27;109082;-57
2024/01/24 04:27:58;;;;;;;12.33;11.33;;;;;;;20.69;27.39;96072.25;6211168;27;110099;-60
2024/01/24 04:31:01;;;;;;;14.60;13.50;;;;;;;20.65;27.52;96071.97;6228615;28;109076;-57
2024/01/24 04:34:04;;;;;;;18.90;17.60;;;;;;;20.60;27.68;96070.16;6234630;27;109064;-58
2024/01/24 04:37:08;;;;;;;19.07;17.77;;;;;;;20.56;27.92;96074.41;6235451;27;109459;-57
2024/01/24 04:40:12;;;;;;;18.77;17.47;;;;;;;20.57;28.00;96075.22;6209916;27;111019;-58
2024/01/24 04:43:19;;;;;;;15.37;14.27;;;;;;;20.60;27.84;96082.66;6220884;27;109648;-56
2024/01/24 04:46:22;;;;;;;14.37;13.17;;;;;;;20.66;27.85;96089.53;6231919;27;110062;-56
2024/01/24 04:49:25;;;;;;;13.07;11.90;;;;;;;20.70;28.09;96076.50;6219179;27;110144;-59
2024/01/24 04:52:46;;;;;;;12.00;10.73;;;;;;;20.90;27.59;96084.41;6214805;27;110439;-58
2024/01/24 04:55:49;;;;;;;11.03;10.03;;;;;;;21.07;27.35;96087.56;6218274;27;110203;-58
2024/01/24 04:58:53;;;;;;;10.40;9.50;;;;;;;20.83;27.93;96091.88;6212343;28;110235;-56
2024/01/24 05:01:57;;;;;;;10.00;9.20;;;;;;;20.66;28.36;96094.84;6228709;28;112426;-58
2024/01/24 05:05:00;;;;;;;8.53;7.77;;;;;;;20.97;27.80;96102.75;6220673;27;109203;-58
2024/01/24 05:08:03;;;;;;;8.60;7.90;;;;;;;20.97;27.91;96100.88;6217600;28;110101;-57
2024/01/24 05:11:06;;;;;;;8.50;7.63;;;;;;;20.80;28.57;96095.88;6223777;27;109905;-56
2024/01/24 05:14:11;;;;;;;7.73;7.03;;;;;;;20.83;28.54;96107.84;6202594;27;109632;-56
2024/01/24 05:17:14;;;;;;;11.23;7.30;;;;;;;20.86;28.73;96118.75;6228458;27;109188;-55
2024/01/24 05:20:17;;;;;;;8.63;7.20;;;;;;;;;;6210377;27;109678;-57
2024/01/24 05:23:20;;;;;;;6.47;5.87;;;;;;;21.16;28.34;96111.72;6226820;28;108866;-57
2024/01/24 05:26:23;;;;;;;10.43;6.33;;;;;;;21.28;27.62;96117.53;6221647;27;109234;-59
2024/01/24 05:29:27;;;;;;;5.70;5.10;;;;;;;21.35;27.70;96123.38;6233614;27;108732;-59
2024/01/24 05:32:31;;;;;;;6.00;5.30;;;;;;;21.40;27.46;96122.56;6223248;27;109119;-59
2024/01/24 05:35:34;;;;;;;5.50;4.90;;;;;;;21.39;27.06;96123.63;6229120;27;109303;-59
2024/01/24 05:38:37;;;;;;;5.63;5.13;;;;;;;21.42;27.29;96129.19;6227428;27;110092;-59
2024/01/24 05:41:40;;;;;;;5.40;4.87;;;;;;;21.44;27.04;96118.25;6233428;27;109538;-60
2024/01/24 05:44:45;;;;;;;5.33;4.83;;;;;;;21.45;27.31;96117.97;6233338;27;109219;-60
2024/01/24 05:47:48;;;;;;;5.20;4.70;;;;;;;21.46;27.17;96119.56;6223263;27;109554;-59
2024/01/24 05:50:51;;;;;;;5.77;5.23;;;;;;;21.49;26.89;96118.22;6233372;28;109091;-60
2024/01/24 05:53:54;;;;;;;4.73;4.30;;;;;;;21.47;26.79;96121.16;6233054;27;109100;-60
2024/01/24 05:56:57;;;;;;;5.33;4.43;;;;;;;21.48;26.96;96117.44;6232206;27;109232;-60
2024/01/24 06:00:02;;;;;;;5.90;4.00;;;;;;;21.50;26.87;96119.81;6222934;27;109245;-60
2024/01/24 06:03:05;;;;;;;5.07;4.57;;;;;;;21.48;26.69;96117.44;6233339;27;110174;-60
2024/01/24 06:06:08;;;;;;;6.63;4.70;;;;;;;21.49;26.74;96116.34;6233066;27;109116;-61
2024/01/24 06:09:12;;;;;;;4.30;3.90;;;;;;;21.49;26.40;96116.34;6233856;27;109339;-60
2024/01/24 06:12:15;;;;;;;4.30;3.90;;;;;;;21.50;26.71;96112.63;6226097;27;110359;-60
2024/01/24 06:15:19;;;;;;;3.80;3.43;;;;;;;21.50;26.35;96117.16;6237130;27;109251;-60
2024/01/24 06:18:23;;;;;;;4.97;3.80;;;;;;;21.50;26.38;96109.16;6237685;27;110427;-59
2024/01/24 06:21:26;;;;;;;5.27;4.13;;;;;;;21.49;26.01;96110.22;6231802;27;109267;-60
2024/01/24 06:24:29;;;;;;;5.17;4.27;;;;;;;21.52;26.63;96118.50;6232254;27;108971;-60
2024/01/24 06:27:32;;;;;;;5.20;3.50;;;;;;;21.54;25.96;96110.22;6236487;27;109851;-60
2024/01/24 06:30:36;;;;;;;4.33;3.60;;;;;;;21.52;26.39;96118.50;6236856;27;109252;-60
2024/01/24 06:33:39;;;;;;;4.47;4.03;;;;;;;21.50;26.38;96104.63;6226919;27;110478;-60
2024/01/24 06:36:43;;;;;;;4.03;3.60;;;;;;;21.54;26.25;96110.22;6237349;28;110530;-59
2024/01/24 06:39:46;;;;;;;4.23;3.83;;;;;;;21.52;26.40;96110.50;6212198;28;109112;-58
2024/01/24 06:42:50;;;;;;;3.77;3.47;;;;;;;21.55;26.03;96113.69;6236327;28;110037;-57
2024/01/24 06:45:55;;;;;;;4.03;3.60;;;;;;;21.52;26.29;96117.69;6226544;27;110136;-57
2024/01/24 06:48:59;;;;;;;3.80;3.40;;;;;;;21.52;26.15;96105.19;6237178;27;110530;-58
2024/01/24 06:52:02;;;;;;;4.33;3.93;;;;;;;21.52;26.13;96113.16;6231441;27;110133;-57
2024/01/24 06:55:06;;;;;;;4.10;3.70;;;;;;;21.55;26.16;96100.38;6232271;27;109102;-59
2024/01/24 06:58:09;;;;;;;4.37;3.83;;;;;;;21.54;26.09;96104.09;6230253;28;110972;-57
2024/01/24 07:01:14;;;;;;;4.33;3.43;;;;;;;21.64;25.92;96109.34;6236588;27;109325;-57
2024/01/24 07:04:17;;;;;;;4.40;3.70;;;;;;;21.75;26.24;96110.88;6236309;27;108996;-57
2024/01/24 07:07:20;;;;;;;4.00;3.60;;;;;;;21.63;25.99;96105.09;6226258;27;109893;-57
2024/01/24 07:10:23;;;;;;;4.13;3.20;;;;;;;21.61;26.08;96102.72;6236341;27;109098;-57
2024/01/24 07:13:26;;;;;;;3.93;3.30;;;;;;;21.57;26.42;96095.56;6235969;27;109225;-58
2024/01/24 07:16:31;;;;;;;3.83;3.20;;;;;;;21.62;25.80;96098.19;6236150;27;109506;-58
2024/01/24 07:19:34;;;;;;;4.00;3.60;;;;;;;21.73;25.72;96097.03;6225593;28;110118;-57
2024/01/24 07:22:38;;;;;;;3.53;3.23;;;;;;;22.03;25.55;96112.06;6235137;27;108857;-58
2024/01/24 07:25:41;;;;;;;4.13;3.73;;;;;;;21.90;25.59;96110.00;6236503;27;110431;-58
2024/01/24 07:28:44;;;;;;;4.47;3.10;;;;;;;21.83;25.72;96118.31;6235506;27;110092;-58
2024/01/24 07:31:49;;;;;;;3.30;3.00;;;;;;;21.77;25.80;96130.03;6225543;27;109651;-58
2024/01/24 07:34:52;;;;;;;3.70;3.27;;;;;;;21.88;25.77;96125.50;6235701;27;109211;-57
2024/01/24 07:37:55;;;;;;;4.33;3.57;;;;;;;21.94;25.79;96129.69;6235667;27;109055;-57
2024/01/24 07:40:58;;;;;;;3.40;3.10;;;;;;;22.02;25.64;96132.59;6229895;27;109141;-57
2024/01/24 07:44:01;;;;;;;4.13;3.33;;;;;;;22.05;25.30;96134.69;6231024;28;109798;-58
2024/01/24 07:47:06;;;;;;;3.50;3.20;;;;;;;22.11;25.75;96141.56;6236103;27;110150;-60
2024/01/24 07:50:11;;;;;;;4.93;3.20;;;;;;;22.14;25.67;96136.75;6236030;27;110021;-61
2024/01/24 07:53:14;;;;;;;4.10;3.00;;;;;;;22.16;25.22;96138.03;6224086;27;109766;-60
2024/01/24 07:56:17;;;;;;;3.50;3.20;;;;;;;22.23;25.43;96133.22;6235839;27;109700;-60
2024/01/24 07:59:28;;;;;;;3.50;3.20;;;;;;;22.26;25.33;96137.19;6234129;27;109175;-60
2024/01/24 08:02:32;;;;;;;4.27;3.00;;;;;;;22.31;25.50;96140.59;6235460;27;110077;-60
2024/01/24 08:05:36;;;;;;;3.43;3.00;;;;;;;22.33;25.28;96143.78;6224687;27;109564;-59
2024/01/24 08:08:39;;;;;;;3.37;3.07;;;;;;;22.34;25.11;96142.69;6234930;27;109183;-60
2024/01/24 08:11:43;;;;;;;3.40;2.97;;;;;;;22.36;25.42;96142.44;6235242;27;110131;-59
2024/01/24 08:14:46;;;;;;;3.47;3.17;;;;;;;22.37;25.51;96146.69;6230058;27;110491;-60
2024/01/24 08:17:51;;;;;;;3.37;2.90;;;;;;;22.38;25.54;96150.94;6229507;27;109380;-60
2024/01/24 08:20:55;;;;;;;3.03;2.73;;;;;;;22.37;25.62;96149.34;6235423;27;109171;-60
2024/01/24 08:23:58;;;;;;;3.73;2.97;;;;;;;22.38;25.40;96156.28;6235063;27;109692;-61
2024/01/24 08:27:01;;;;;;;3.00;2.70;;;;;;;22.37;25.09;96154.69;6224227;27;109554;-60
2024/01/24 08:30:06;;;;;;;3.40;3.10;;;;;;;22.36;25.07;96153.09;6233887;27;109300;-59
2024/01/24 08:33:10;;;;;;;3.63;2.93;;;;;;;22.35;25.20;96159.50;6234473;27;109440;-60
2024/01/24 08:36:14;;;;;;;3.90;3.50;;;;;;;22.35;25.30;96167.50;6234522;27;109125;-60
2024/01/24 08:39:17;;;;;;;3.77;2.90;;;;;;;22.30;25.56;96155.00;6224352;27;109690;-60
2024/01/24 08:42:20;;;;;;;3.00;2.70;;;;;;;22.30;25.33;96152.34;6234140;27;109431;-60
2024/01/24 08:45:23;;;;;;;3.23;2.90;;;;;;;22.29;25.73;96147.28;6234403;27;109099;-60
2024/01/24 08:48:28;;;;;;;2.73;2.50;;;;;;;22.30;25.11;96151.53;6234499;27;108730;-60
2024/01/24 08:51:32;;;;;;;2.97;2.67;;;;;;;22.27;25.49;96139.56;6224561;27;109144;-59
2024/01/24 08:54:35;;;;;;;3.60;3.30;;;;;;;22.26;25.25;96121.97;6234240;27;109002;-59
2024/01/24 08:57:42;;;;;;;3.20;2.90;;;;;;;22.24;25.25;96126.78;6233931;27;109062;-60
2024/01/24 09:00:46;;;;;;;3.20;2.90;;;;;;;22.24;25.47;96134.00;6223420;27;109020;-61
2024/01/24 09:03:53;;;;;;;3.20;2.90;;;;;;;22.22;25.34;96131.63;6234646;27;108859;-60
2024/01/24 09:06:56;;;;;;;3.20;2.70;;;;;;;22.20;25.36;96135.63;6234271;27;109015;-60
2024/01/24 09:09:59;;;;;;;3.40;3.10;;;;;;;22.18;25.66;96135.09;6233729;27;109061;-60
2024/01/24 09:13:03;;;;;;;3.40;3.10;;;;;;;22.14;25.78;96137.53;6222798;27;109056;-60
2024/01/24 09:16:07;;;;;;;3.40;2.97;;;;;;;22.15;25.40;96141.00;6234219;27;109147;-60
2024/01/24 09:19:12;;;;;;;3.03;2.73;;;;;;;22.11;25.71;96136.22;6233718;27;109292;-60
2024/01/24 09:22:15;;;;;;;3.07;2.77;;;;;;;22.14;25.56;96131.41;6234314;27;109647;-61
2024/01/24 09:25:19;;;;;;;3.37;2.50;;;;;;;22.13;25.31;96124.47;6223412;27;109607;-61
2024/01/24 09:28:22;;;;;;;3.13;2.83;;;;;;;22.13;25.43;96127.16;6234101;27;110426;-60
2024/01/24 09:31:25;;;;;;;3.23;2.77;;;;;;;22.09;25.61;96119.72;6233087;27;108800;-60
2024/01/24 09:34:30;;;;;;;2.83;2.50;;;;;;;22.12;25.55;96118.34;6228608;27;109070;-60
2024/01/24 09:37:33;;;;;;;3.17;2.87;;;;;;;22.14;25.61;96118.06;6228208;27;109006;-60
2024/01/24 09:40:36;;;;;;;3.10;2.80;;;;;;;22.13;25.42;96111.16;6233563;28;110494;-60
2024/01/24 09:43:40;;;;;;;3.40;3.10;;;;;;;22.14;25.35;96108.22;6233399;27;109092;-60
2024/01/24 09:46:43;;;;;;;3.20;2.90;;;;;;;22.17;25.53;96096.19;6226585;27;109256;-60
2024/01/24 09:49:48;;;;;;;2.67;2.47;;;;;;;22.19;25.43;96088.72;6238114;27;109619;-60
2024/01/24 09:52:51;;;;;;;3.37;3.07;;;;;;;22.20;25.59;96080.44;6238750;28;111938;-60
2024/01/24 09:55:57;;;;;;;3.20;2.90;;;;;;;22.20;25.08;96082.31;6238258;27;109811;-60
2024/01/24 09:59:01;;;;;;;3.30;3.00;;;;;;;22.23;25.51;96077.22;6226488;27;109120;-61
2024/01/24 10:02:06;;;;;;;3.10;2.80;;;;;;;22.24;25.72;96078.00;6237257;27;109053;-60
2024/01/24 10:05:16;;;;;;;4.53;3.33;;;;;;;22.23;25.22;96074.53;6238043;28;110134;-60
2024/01/24 10:08:19;;;;;;;3.40;2.67;;;;;;;22.29;25.31;96077.94;6232659;27;109322;-61
2024/01/24 10:11:22;;;;;;;3.47;3.17;;;;;;;22.28;25.33;96071.03;6231867;27;109504;-62
2024/01/24 10:14:25;;;;;;;3.50;2.80;;;;;;;22.27;25.48;96056.13;6237866;27;109315;-60
2024/01/24 10:17:29;;;;;;;3.00;2.70;;;;;;;22.29;25.28;96057.41;6237766;27;110173;-60
2024/01/24 10:20:34;;;;;;;3.30;2.97;;;;;;;22.30;25.52;96058.22;6226764;27;109370;-60
2024/01/24 10:23:38;;;;;;;3.10;2.70;;;;;;;22.33;25.46;96058.44;6237879;27;109453;-59
2024/01/24 10:26:41;;;;;;;4.17;3.07;;;;;;;22.33;25.26;96039.75;6237543;27;109102;-60
2024/01/24 10:29:44;;;;;;;3.27;2.80;;;;;;;22.33;25.52;96037.09;6237077;27;109121;-61
2024/01/24 10:32:48;;;;;;;3.23;2.93;;;;;;;22.32;25.47;96040.84;6226512;27;109054;-59
2024/01/24 10:35:53;;;;;;;3.37;2.90;;;;;;;22.33;25.44;96033.63;6236901;27;108812;-62
2024/01/24 10:39:00;;;;;;;3.37;3.07;;;;;;;22.32;25.49;96029.38;6236912;27;109038;-59
2024/01/24 10:42:06;;;;;;;3.20;2.90;;;;;;;22.32;25.70;96034.72;6236643;27;109223;-59
2024/01/24 10:45:18;;;;;;;3.50;3.20;;;;;;;22.33;25.22;96021.09;6229770;27;109218;-59
2024/01/24 10:48:21;;;;;;;3.50;3.10;;;;;;;22.33;25.21;96014.97;6237697;27;109039;-61
2024/01/24 10:51:27;;;;;;;3.47;2.90;;;;;;;22.36;25.76;96014.44;6237190;27;109171;-60
2024/01/24 10:54:32;;;;;;;4.00;3.60;;;;;;;22.31;25.66;95999.25;6227187;27;109137;-60
2024/01/24 10:57:36;;;;;;;3.40;3.10;;;;;;;22.33;25.19;95998.97;6235177;27;110158;-59
2024/01/24 11:00:41;;;;;;;3.33;3.03;;;;;;;22.31;25.78;96006.47;6236449;27;109079;-61
2024/01/24 11:03:46;;;;;;;3.30;3.00;;;;;;;22.33;25.64;95985.63;6235641;27;109070;-59
2024/01/24 11:06:57;;;;;;;3.33;2.87;;;;;;;22.30;25.29;95986.22;6225776;27;109981;-60
2024/01/24 11:10:14;;;;;;;3.30;3.00;;;;;;;22.28;25.36;95969.72;6236624;27;110188;-60
2024/01/24 11:13:19;;;;;;;3.27;2.60;;;;;;;22.30;25.62;95971.00;6236684;27;109142;-60
2024/01/24 11:16:32;;;;;;;3.50;3.03;;;;;;;22.27;25.92;95968.13;6232793;27;109344;-61
2024/01/24 11:19:35;;;;;;;3.73;3.40;;;;;;;22.27;25.75;95970.78;6230323;27;109445;-60
2024/01/24 11:22:40;;;;;;;3.30;2.87;;;;;;;22.24;25.34;95966.03;6236453;27;109362;-60
2024/01/24 11:25:45;;;;;;;3.30;3.00;;;;;;;22.24;25.38;95972.16;6236420;27;109548;-61
2024/01/24 11:28:50;;;;;;;3.20;2.90;;;;;;;22.20;25.49;95963.13;6224714;27;109223;-60
2024/01/24 11:31:53;;;;;;;3.30;3.00;;;;;;;22.22;25.73;95954.84;6236425;28;110438;-60
2024/01/24 11:35:27;;;;;;;3.20;2.77;;;;;;;22.20;25.55;95957.00;6235146;27;109234;-61
2024/01/24 11:38:36;;;;;;;3.30;3.00;;;;;;;22.17;25.87;95952.22;6235648;27;109111;-60
2024/01/24 11:41:41;;;;;;;3.40;2.87;;;;;;;22.15;25.85;95949.84;6224545;27;109101;-60
2024/01/24 11:44:44;;;;;;;2.97;2.70;;;;;;;22.16;25.78;95950.63;6236049;27;109247;-60
2024/01/24 11:47:48;;;;;;;2.97;2.70;;;;;;;22.14;25.80;95950.13;6235588;27;109191;-60
2024/01/24 11:50:59;;;;;;;2.90;2.60;;;;;;;22.10;25.81;95948.03;6230481;27;110525;-61
2024/01/24 11:54:03;;;;;;;3.33;3.00;;;;;;;22.06;25.62;95931.03;6231716;27;110269;-61
2024/01/24 11:57:06;;;;;;;3.50;2.87;;;;;;;22.06;26.18;95931.03;6235550;27;110115;-60
2024/01/24 12:00:14;;;;;;;3.13;2.83;;;;;;;22.10;25.61;95923.25;6235823;27;112023;-60
2024/01/24 12:03:17;;;;;;;3.03;2.73;;;;;;;22.02;25.67;95918.56;6224590;27;110169;-60
2024/01/24 12:06:21;;;;;;;3.37;2.53;;;;;;;22.03;26.10;95915.59;6234122;27;109185;-60
2024/01/24 12:09:25;;;;;;;3.27;2.87;;;;;;;22.01;25.73;95912.44;6234697;27;108765;-59
2024/01/24 12:12:29;;;;;;;3.70;2.80;;;;;;;22.02;25.53;95907.91;6235101;27;110409;-60
2024/01/24 12:15:33;;;;;;;2.97;2.67;;;;;;;22.02;26.02;95910.56;6224614;27;109022;-60
2024/01/24 12:18:37;;;;;;;3.30;3.00;;;;;;;21.99;26.21;95898.56;6235043;27;109069;-60
2024/01/24 12:21:41;;;;;;;3.83;2.90;;;;;;;22.04;25.93;95893.22;6234868;27;109193;-60
2024/01/24 12:24:47;;;;;;;3.33;3.00;;;;;;;22.09;25.63;95885.16;6229407;27;109059;-60
2024/01/24 12:27:53;;;;;;;3.50;2.80;;;;;;;22.09;25.58;95879.03;6230357;27;109048;-57
2024/01/24 12:30:57;;;;;;;3.17;2.87;;;;;;;22.10;26.12;95862.75;6234869;27;109015;-57
2024/01/24 12:34:01;;;;;;;2.93;2.60;;;;;;;22.10;26.00;95857.41;6235086;27;110102;-57
2024/01/24 12:37:05;;;;;;;2.57;2.37;;;;;;;22.14;25.89;95840.84;6222357;27;109255;-58
2024/01/24 12:40:12;;;;;;;3.30;2.77;;;;;;;22.09;25.95;95831.03;6234536;27;109310;-58
2024/01/24 12:43:15;;;;;;;3.90;2.80;;;;;;;22.10;25.49;95829.97;6234330;27;109078;-57
2024/01/24 12:46:19;;;;;;;3.50;3.20;;;;;;;22.08;25.59;95824.13;6234627;27;110627;-58
2024/01/24 12:49:22;;;;;;;3.40;2.70;;;;;;;22.09;25.64;95831.03;6224056;27;109567;-58
2024/01/24 12:52:26;;;;;;;3.20;2.90;;;;;;;22.07;26.00;95830.53;6234264;27;109087;-58
2024/01/24 12:55:30;;;;;;;3.13;2.83;;;;;;;22.09;26.07;95826.50;6234125;27;109448;-58
2024/01/24 12:58:34;;;;;;;2.60;2.40;;;;;;;22.07;25.58;95820.66;6231831;27;110155;-58
2024/01/24 13:01:37;;;;;;;3.00;2.70;;;;;;;22.07;26.01;95831.31;6227294;27;109389;-58
2024/01/24 13:04:41;;;;;;;3.03;2.60;;;;;;;22.03;25.63;95819.66;6233975;27;109271;-57
2024/01/24 13:07:45;;;;;;;2.93;2.63;;;;;;;22.05;25.69;95835.38;6233282;27;109211;-57
2024/01/24 13:10:52;;;;;;;2.87;2.53;;;;;;;21.99;25.83;95836.47;6223084;27;109159;-57
2024/01/24 13:13:55;;;;;;;2.57;2.27;;;;;;;22.00;25.75;95836.19;6233412;27;109157;-57
2024/01/24 13:16:58;;;;;;;2.50;2.20;;;;;;;21.98;25.64;95827.69;6234165;27;109208;-57
2024/01/24 13:20:05;;;;;;;2.77;2.50;;;;;;;21.99;25.80;95844.47;6233204;27;110640;-57
2024/01/24 13:23:08;;;;;;;2.63;2.43;;;;;;;21.96;25.82;95845.06;6223326;27;108945;-57
2024/01/24 13:26:12;;;;;;;2.73;2.53;;;;;;;21.94;26.04;95845.34;6233829;27;109127;-57
2024/01/24 13:29:15;;;;;;;3.30;2.97;;;;;;;21.91;25.90;95837.91;6233883;27;109161;-58
2024/01/24 13:32:20;;;;;;;3.10;2.67;;;;;;;21.95;26.04;95840.81;6233755;27;109047;-58
2024/01/24 13:35:23;;;;;;;2.93;2.37;;;;;;;21.95;25.80;95833.59;6224077;27;110168;-58
2024/01/24 13:38:28;;;;;;;2.93;2.70;;;;;;;21.87;25.86;95823.59;6233360;28;110291;-58
2024/01/24 13:41:33;;;;;;;2.50;2.30;;;;;;;21.92;25.71;95830.72;6233838;27;109327;-58
2024/01/24 13:44:36;;;;;;;2.60;2.40;;;;;;;21.92;25.78;95818.19;6227661;28;109077;-58
2024/01/24 13:47:40;;;;;;;2.90;2.40;;;;;;;21.92;26.12;95828.06;6231508;27;109095;-58
2024/01/24 13:50:43;;;;;;;2.90;2.47;;;;;;;21.96;26.11;95824.53;6233569;27;109285;-58
2024/01/24 13:53:47;;;;;;;2.90;2.60;;;;;;;21.95;26.10;95828.28;6233699;27;109085;-58
2024/01/24 13:56:51;;;;;;;2.70;2.50;;;;;;;21.95;26.22;95832.81;6222656;27;110218;-58
2024/01/24 13:59:55;;;;;;;3.07;2.77;;;;;;;21.94;26.07;95836.56;6232857;27;109075;-59
2024/01/24 14:02:58;;;;;;;2.40;2.20;;;;;;;21.90;25.81;95838.22;6233661;28;110119;-58
2024/01/24 14:06:01;;;;;;;2.27;2.03;;;;;;;21.90;25.95;95831.00;6233146;27;109138;-58
2024/01/24 14:09:05;;;;;;;2.93;2.50;;;;;;;21.90;26.01;95820.34;6221397;27;110107;-58
2024/01/24 14:12:09;;;;;;;3.00;2.70;;;;;;;21.94;26.02;95813.38;6232995;27;109095;-58
2024/01/24 14:15:13;;;;;;;2.90;2.60;;;;;;;21.93;25.73;95798.44;6232943;27;109098;-58